Time;durP1;ratioP1;P1;durP2;ratioP2;P2;SDS_P1;SDS_P2;PMS_P1;PMS_P2;Temp;Humidity;BMP_temperature;BMP_pressure;BME280_temperature;BME280_humidity;BME280_pressure;Samples;Min_cycle;Max_cycle;Signal;HPM_P1;HPM_P2
2021/07/30 00:01:21;;;;;;;12.40;6.93;;;18.30;99.90;;;18.70;64.06;100891.94;4936783;29;20055;-84
2021/07/30 00:03:50;;;;;;;13.57;7.82;;;18.30;99.90;;;18.66;64.22;100892.13;4919230;29;20098;-84
2021/07/30 00:06:27;;;;;;;15.05;8.20;;;18.30;99.90;;;18.65;64.28;100885.00;4936634;29;20075;-84
2021/07/30 00:08:55;;;;;;;13.13;7.30;;;18.30;99.90;;;18.56;64.63;100883.53;4936339;29;20049;-84
2021/07/30 00:11:23;;;;;;;15.45;7.78;;;18.20;99.90;;;18.57;64.63;100873.69;4936330;29;20106;-83
2021/07/30 00:13:53;;;;;;;15.18;8.23;;;18.20;99.90;;;18.01;64.77;100793.59;4936425;29;20076;-84
2021/07/30 00:16:22;;;;;;;14.23;8.43;;;18.20;99.90;;;18.60;64.95;100887.84;4936337;29;20047;-84
2021/07/30 00:18:50;;;;;;;18.27;8.00;;;18.20;99.90;;;18.59;65.00;100885.25;4936304;29;20044;-83
2021/07/30 00:21:19;;;;;;;15.85;8.18;;;18.20;99.90;;;18.59;65.14;100885.25;4936352;29;20090;-82
2021/07/30 00:23:47;;;;;;;18.95;8.50;;;18.20;99.90;;;18.59;65.12;100879.88;4936228;29;20047;-84
2021/07/30 00:26:15;;;;;;;17.58;8.02;;;18.20;99.90;;;18.54;65.26;100877.34;4936316;29;20054;-83
2021/07/30 00:28:44;;;;;;;15.70;7.53;;;18.20;99.90;;;18.54;65.24;100877.34;4936353;29;20043;-84
2021/07/30 00:31:13;;;;;;;15.18;7.63;;;18.20;99.90;;;18.52;65.39;100879.25;4936314;29;20055;-84
2021/07/30 00:33:42;;;;;;;14.95;8.07;;;18.10;99.90;;;18.49;65.44;100876.66;4920954;29;20494;-85
2021/07/30 00:36:10;;;;;;;19.10;8.18;;;18.10;99.90;;;18.51;65.38;100874.81;4939846;29;20050;-84
2021/07/30 00:38:39;;;;;;;15.23;7.72;;;18.10;99.90;;;18.47;65.45;100870.50;4922871;29;20498;-84
2021/07/30 00:41:07;;;;;;;16.05;7.97;;;18.10;99.90;;;18.36;65.51;100851.22;4940110;29;20498;-84
2021/07/30 00:43:36;;;;;;;12.65;7.38;;;18.10;99.90;;;18.48;65.44;100871.38;4922685;29;20560;-84
2021/07/30 00:46:05;;;;;;;9.77;7.03;;;18.10;99.90;;;18.52;65.34;100871.22;4939828;29;20482;-84
2021/07/30 00:48:35;;;;;;;14.15;8.38;;;18.10;99.90;;;18.55;65.23;100867.53;4922624;29;20095;-83
2021/07/30 00:51:04;;;;;;;11.38;6.95;;;18.10;99.90;;;18.46;65.51;100862.53;4922549;29;20067;-83
2021/07/30 00:53:32;;;;;;;14.23;7.13;;;18.10;99.90;;;18.08;65.39;100786.22;4939573;29;20446;-83
2021/07/30 00:56:01;;;;;;;13.45;7.47;;;18.10;99.90;;;18.51;65.41;100863.22;4922400;29;20044;-84
2021/07/30 00:58:29;;;;;;;13.40;7.55;;;18.10;99.90;;;18.48;65.46;100850.81;4922334;29;20106;-84
2021/07/30 01:00:59;;;;;;;13.80;7.53;;;18.10;99.90;;;18.46;65.61;100850.00;4939580;29;20051;-82
2021/07/30 01:03:28;;;;;;;14.63;8.00;;;18.10;99.90;;;18.49;65.58;100851.69;4939568;29;20071;-84
2021/07/30 01:05:58;;;;;;;14.85;7.75;;;18.10;99.90;;;18.53;65.50;100858.66;4922339;29;20091;-84
2021/07/30 01:08:26;;;;;;;17.00;8.20;;;18.10;99.90;;;18.55;65.68;100859.50;4939534;29;20051;-85
2021/07/30 01:10:55;;;;;;;15.57;7.88;;;18.10;99.90;;;18.56;65.68;100864.78;4940844;29;20498;-84
2021/07/30 01:13:23;;;;;;;15.95;8.20;;;18.10;99.90;;;18.53;65.92;100864.91;4940639;29;20055;-84
2021/07/30 01:15:51;;;;;;;14.40;7.70;;;18.10;99.90;;;18.54;65.88;100865.78;4939857;29;20055;-84
2021/07/30 01:18:20;;;;;;;19.17;8.02;;;18.10;99.90;;;18.51;66.04;100872.13;4939530;29;20052;-84
2021/07/30 01:21:09;;;;;;;17.00;7.82;;;18.10;99.90;;;18.50;66.12;100865.03;4939135;29;20107;-84
2021/07/30 01:23:39;;;;;;;14.45;7.55;;;18.10;99.90;;;18.44;66.46;100859.91;4939124;29;20110;-84
2021/07/30 01:26:07;;;;;;;11.60;7.30;;;18.00;99.90;;;18.33;66.54;100858.50;4939210;29;20052;-84
2021/07/30 01:28:36;;;;;;;15.30;8.00;;;18.00;99.90;;;18.46;66.63;100855.38;4939061;29;20043;-84
2021/07/30 01:31:05;;;;;;;17.00;7.78;;;18.00;99.90;;;18.21;66.74;100813.44;4938811;29;20099;-84
2021/07/30 01:33:34;;;;;;;18.60;7.43;;;18.00;99.90;;;18.35;66.87;100837.91;4938822;29;20052;-84
2021/07/30 01:36:03;;;;;;;12.13;7.70;;;18.00;99.90;;;18.47;67.00;100853.53;4938961;29;20047;-84
2021/07/30 01:38:32;;;;;;;16.90;7.35;;;18.00;99.90;;;18.38;66.99;100833.31;4938697;29;20051;-84
2021/07/30 01:41:09;;;;;;;11.15;7.38;;;18.00;99.90;;;18.47;67.02;100848.19;4938781;29;20043;-84
2021/07/30 01:43:39;;;;;;;18.10;7.47;;;18.00;99.90;;;18.35;67.30;100833.41;4938386;29;20052;-84
2021/07/30 01:46:09;;;;;;;18.35;7.97;;;18.00;99.90;;;18.42;67.36;100855.50;4921705;29;20074;-85
2021/07/30 01:48:37;;;;;;;18.75;7.93;;;18.00;99.90;;;18.39;67.33;100853.78;4938670;29;20052;-83
2021/07/30 01:51:07;;;;;;;18.88;8.27;;;18.00;99.90;;;18.41;67.39;100854.59;4921590;29;20103;-84
2021/07/30 01:53:36;;;;;;;18.35;7.78;;;18.00;99.90;;;18.25;67.31;100832.00;4938683;29;20040;-84
2021/07/30 01:56:07;;;;;;;16.42;7.90;;;18.00;99.90;;;18.34;67.32;100846.84;4938474;29;20382;-84
2021/07/30 01:58:35;;;;;;;17.15;7.43;;;18.00;99.90;;;18.36;67.29;100848.56;4938471;29;20048;-84
2021/07/30 02:01:05;;;;;;;17.17;7.32;;;18.00;99.90;;;18.39;67.48;100856.47;4921082;29;20051;-84
2021/07/30 02:03:33;;;;;;;19.90;8.05;;;18.00;99.90;;;18.32;67.47;100841.56;4937754;29;20497;-84
2021/07/30 02:06:08;;;;;;;19.10;7.25;;;18.00;99.90;;;18.32;67.56;100836.19;4937877;29;20501;-85
2021/07/30 02:08:36;;;;;;;19.20;8.07;;;18.00;99.90;;;18.29;67.35;100828.25;4938273;29;20062;-84
2021/07/30 02:11:11;;;;;;;15.75;8.32;;;18.00;99.90;;;18.38;67.41;100838.66;4937899;29;20043;-84
2021/07/30 02:16:26;;;;;;;19.90;8.45;;;18.00;99.90;;;18.36;67.49;100840.53;4920979;29;20520;-85
2021/07/30 02:18:55;;;;;;;17.55;7.97;;;18.00;99.90;;;18.30;67.56;100846.09;4937848;29;20450;-84
2021/07/30 02:21:24;;;;;;;21.73;8.18;;;18.00;99.90;;;18.37;67.41;100834.22;4937978;29;20126;-83
2021/07/30 02:23:52;;;;;;;14.88;7.82;;;18.00;99.90;;;18.35;67.59;100833.41;4938002;29;20122;-85
2021/07/30 02:26:22;;;;;;;13.38;7.90;;;18.00;99.90;;;17.94;67.65;100743.03;4938108;29;20047;-84
2021/07/30 02:28:50;;;;;;;21.90;8.63;;;18.00;99.90;;;18.37;67.86;100820.81;4937961;29;20458;-84
2021/07/30 02:31:19;;;;;;;14.85;8.10;;;17.90;99.90;;;18.39;67.83;100823.47;4937836;29;20323;-84
2021/07/30 02:33:47;;;;;;;16.65;8.50;;;18.00;99.90;;;18.34;68.12;100822.75;4920266;29;20421;-84
2021/07/30 02:36:16;;;;;;;16.40;8.70;;;17.90;99.90;;;18.24;68.51;100827.56;4937454;29;20054;-84
2021/07/30 02:38:44;;;;;;;19.50;8.48;;;17.90;99.90;;;18.29;68.82;100827.41;4920748;29;20557;-85
2021/07/30 02:41:13;;;;;;;15.80;8.35;;;17.90;99.90;;;18.22;68.32;100821.41;4937303;29;20086;-85
2021/07/30 02:43:43;;;;;;;14.98;7.90;;;17.90;99.90;;;18.22;68.48;100805.31;4938035;29;20071;-85
2021/07/30 02:46:14;;;;;;;11.45;7.72;;;17.80;99.90;;;17.65;68.77;100711.09;4937907;29;20045;-84
2021/07/30 02:48:42;;;;;;;14.25;7.72;;;17.80;99.90;;;18.00;69.46;100786.50;4938206;29;20056;-84
2021/07/30 02:51:11;;;;;;;14.77;8.30;;;17.80;99.90;;;18.21;69.12;100819.66;4923007;29;20090;-85
2021/07/30 02:53:39;;;;;;;17.40;9.07;;;17.80;99.90;;;18.20;68.69;100817.91;4938684;29;20056;-85
2021/07/30 02:56:08;;;;;;;17.27;9.10;;;17.80;99.90;;;18.20;68.54;100814.34;4937556;29;20052;-85
2021/07/30 02:58:37;;;;;;;13.93;8.23;;;17.80;99.90;;;18.21;68.57;100810.75;4937629;29;20039;-84
2021/07/30 03:01:07;;;;;;;17.58;8.88;;;17.80;99.90;;;18.16;68.77;100799.31;4920353;29;20132;-84
2021/07/30 03:03:35;;;;;;;18.75;8.25;;;17.80;99.90;;;18.08;68.62;100790.72;4937184;29;20059;-85
2021/07/30 03:06:04;;;;;;;19.92;8.73;;;17.80;99.90;;;18.18;68.66;100802.81;4937069;29;20391;-84
2021/07/30 03:08:32;;;;;;;18.80;9.23;;;17.80;99.90;;;18.20;68.74;100803.63;4920199;29;20091;-84
2021/07/30 03:11:01;;;;;;;20.33;9.65;;;17.80;99.90;;;18.21;68.75;100806.28;4937035;29;20052;-84
2021/07/30 03:13:29;;;;;;;16.60;9.35;;;17.80;99.90;;;18.19;68.74;100789.38;4919867;29;20052;-85
2021/07/30 03:15:58;;;;;;;16.95;9.00;;;17.80;99.90;;;18.22;68.73;100788.38;4936976;29;20043;-84
2021/07/30 03:18:28;;;;;;;22.63;9.73;;;17.80;99.90;;;18.28;68.83;100805.09;4936880;29;20048;-85
2021/07/30 03:20:56;;;;;;;17.40;8.82;;;17.80;99.90;;;18.12;69.09;100787.84;4936877;29;20051;-85
2021/07/30 03:23:25;;;;;;;17.63;8.63;;;17.80;99.90;;;18.17;69.14;100791.25;4936800;29;20047;-84
2021/07/30 03:25:53;;;;;;;16.27;9.13;;;17.80;99.90;;;18.14;69.50;100785.13;4936778;29;20056;-84
2021/07/30 03:28:22;;;;;;;16.30;9.02;;;17.70;99.90;;;18.11;69.67;100791.47;4936720;29;20068;-84
2021/07/30 03:30:51;;;;;;;17.98;9.13;;;17.70;99.90;;;18.06;69.95;100785.38;4936625;29;20067;-85
2021/07/30 03:33:19;;;;;;;15.43;8.73;;;17.70;99.90;;;18.07;69.99;100796.97;4936514;29;20067;-83
2021/07/30 03:35:49;;;;;;;15.88;8.38;;;17.70;99.90;;;18.06;70.24;100793.41;4936774;29;20048;-84
2021/07/30 03:38:18;;;;;;;16.10;8.88;;;17.60;99.90;;;18.07;70.39;100797.88;4937192;29;20067;-84
2021/07/30 03:40:46;;;;;;;19.17;9.63;;;17.60;99.90;;;17.99;70.51;100783.88;4919521;29;20075;-85
2021/07/30 03:43:15;;;;;;;17.15;9.07;;;17.60;99.90;;;18.06;70.48;100781.88;4936527;29;20043;-84
2021/07/30 03:45:43;;;;;;;16.02;8.90;;;17.70;99.90;;;18.16;70.39;100788.59;4919651;29;20051;-85
2021/07/30 03:48:12;;;;;;;21.58;9.52;;;17.70;99.90;;;18.16;70.57;100789.47;4919550;29;20044;-83
2021/07/30 03:50:41;;;;;;;15.68;8.70;;;17.70;99.90;;;18.15;70.53;100785.06;4919803;29;20051;-84
2021/07/30 03:53:11;;;;;;;17.05;9.38;;;17.80;99.90;;;18.24;70.53;100795.44;4936383;29;20067;-84
2021/07/30 03:55:39;;;;;;;18.63;9.27;;;17.80;99.90;;;18.17;70.36;100780.53;4919817;29;20418;-84
2021/07/30 03:58:08;;;;;;;17.58;8.90;;;17.80;99.90;;;18.29;70.69;100792.59;4919988;29;20044;-84
2021/07/30 04:00:38;;;;;;;23.00;9.75;;;17.90;99.90;;;18.27;70.51;100779.28;4937133;29;20099;-84
2021/07/30 04:03:07;;;;;;;16.63;8.98;;;17.90;99.90;;;18.31;70.64;100791.59;4920149;29;20078;-84
2021/07/30 04:05:36;;;;;;;17.30;8.90;;;17.90;99.90;;;18.32;70.80;100782.63;4937127;29;20111;-82
2021/07/30 04:08:06;;;;;;;16.75;8.75;;;17.90;99.90;;;18.32;70.65;100777.28;4939867;29;20059;-84
2021/07/30 04:10:35;;;;;;;20.55;9.60;;;17.90;99.90;;;18.28;70.74;100777.44;4941108;29;20051;-84
2021/07/30 04:13:04;;;;;;;16.45;8.88;;;18.00;99.90;;;18.25;70.79;100762.38;4942230;29;20051;-84
2021/07/30 04:15:32;;;;;;;17.50;9.32;;;17.90;99.90;;;18.26;70.78;100756.09;4942295;29;20052;-84
2021/07/30 04:18:01;;;;;;;19.38;9.70;;;17.90;99.90;;;18.27;70.92;100781.06;4941918;29;20048;-84
2021/07/30 04:20:31;;;;;;;15.98;9.18;;;17.90;99.90;;;18.16;71.37;100767.19;4942707;29;20063;-85
2021/07/30 04:22:59;;;;;;;16.55;8.98;;;17.80;99.90;;;18.17;71.41;100753.75;4926269;29;20145;-84
2021/07/30 04:25:28;;;;;;;17.83;8.57;;;17.90;99.90;;;18.18;71.98;100768.88;4943390;29;20048;-84
2021/07/30 04:27:58;;;;;;;18.55;9.55;;;17.80;99.90;;;18.04;72.53;100752.44;4927015;29;20159;-84
2021/07/30 04:30:28;;;;;;;17.55;9.75;;;17.80;99.90;;;17.96;73.03;100768.78;4942683;29;20402;-84
2021/07/30 04:32:56;;;;;;;17.73;9.27;;;17.70;99.90;;;17.91;73.43;100765.41;4942559;29;20138;-83
2021/07/30 04:35:25;;;;;;;23.20;9.50;;;17.70;99.90;;;17.82;73.98;100759.53;4944137;29;20043;-84
2021/07/30 04:37:57;;;;;;;19.27;9.25;;;17.60;99.90;;;17.70;74.30;100752.81;4943939;29;20048;-83
2021/07/30 04:40:25;;;;;;;16.25;9.32;;;17.50;99.90;;;17.69;74.57;100752.88;4942866;29;20087;-84
2021/07/30 04:42:57;;;;;;;16.48;9.13;;;17.50;99.90;;;17.60;74.66;100747.81;4942602;29;20048;-84
2021/07/30 04:45:26;;;;;;;16.92;8.95;;;17.50;99.90;;;17.78;74.59;100739.16;4925187;29;20111;-84
2021/07/30 04:47:55;;;;;;;18.42;9.95;;;17.50;99.90;;;17.76;74.65;100746.38;4942114;29;20051;-83
2021/07/30 04:50:23;;;;;;;20.90;10.30;;;17.50;99.90;;;17.67;74.86;100746.69;4942147;29;20039;-84
2021/07/30 04:52:54;;;;;;;17.27;9.50;;;17.50;99.90;;;17.71;74.93;100745.66;4923267;29;20454;-83
2021/07/30 04:55:23;;;;;;;19.70;9.82;;;17.50;99.90;;;17.68;74.75;100727.03;4939699;29;20043;-84
2021/07/30 04:57:53;;;;;;;20.20;9.82;;;17.50;99.90;;;17.57;75.03;100713.16;4939701;29;20040;-84
2021/07/30 05:00:23;;;;;;;23.88;9.45;;;17.40;99.90;;;17.69;75.23;100736.81;4940103;29;20118;-84
2021/07/30 05:02:53;;;;;;;24.67;10.35;;;17.50;99.90;;;17.64;75.03;100736.97;4941347;29;20055;-84
2021/07/30 05:05:22;;;;;;;18.65;9.48;;;17.50;99.90;;;17.41;75.02;100711.91;4941023;29;20040;-84
2021/07/30 05:07:51;;;;;;;19.80;10.20;;;17.40;99.90;;;17.61;74.92;100738.88;4940750;29;20036;-84
2021/07/30 05:10:19;;;;;;;25.55;9.60;;;17.40;99.90;;;17.65;75.13;100732.50;4940099;29;20056;-83
2021/07/30 05:12:48;;;;;;;16.80;10.40;;;17.40;99.90;;;17.54;74.80;100722.16;4940522;29;20043;-84
2021/07/30 05:15:16;;;;;;;17.38;10.45;;;17.50;99.90;;;17.66;74.94;100739.59;4922603;29;20480;-83
2021/07/30 05:17:46;;;;;;;23.00;10.88;;;17.40;99.90;;;17.68;75.05;100737.72;4938873;29;20421;-84
2021/07/30 05:20:14;;;;;;;20.70;9.93;;;17.40;99.90;;;17.62;75.58;100737.94;4921273;29;20483;-84
2021/07/30 05:22:43;;;;;;;22.35;11.00;;;17.50;99.90;;;17.56;76.07;100711.41;4921965;29;20064;-84
2021/07/30 05:25:13;;;;;;;19.90;10.27;;;17.50;99.90;;;17.63;76.57;100751.28;4938705;29;20434;-85
2021/07/30 05:27:41;;;;;;;17.75;10.15;;;17.40;99.90;;;17.55;77.18;100728.41;4922065;29;20055;-83
2021/07/30 05:30:12;;;;;;;20.52;11.60;;;17.40;99.90;;;17.58;77.17;100721.13;4938933;29;20036;-84
2021/07/30 05:32:41;;;;;;;18.17;10.65;;;17.40;99.90;;;17.74;77.19;100732.16;4921551;29;20541;-85
2021/07/30 05:35:11;;;;;;;19.02;10.80;;;17.40;99.90;;;17.69;77.08;100721.63;4938518;29;20052;-85
2021/07/30 05:37:40;;;;;;;23.13;12.00;;;17.50;99.90;;;17.71;77.27;100726.94;4938973;29;20052;-84
2021/07/30 05:40:10;;;;;;;20.77;11.27;;;17.50;99.90;;;17.80;77.32;100722.13;4939134;29;20067;-84
2021/07/30 05:42:38;;;;;;;20.85;10.50;;;17.50;99.90;;;17.81;77.41;100728.31;4921672;29;20048;-84
2021/07/30 05:45:09;;;;;;;17.10;10.52;;;17.60;99.90;;;17.83;77.04;100716.66;4938479;29;20074;-84
2021/07/30 05:47:38;;;;;;;19.33;11.43;;;17.60;99.90;;;17.83;77.08;100722.00;4938652;29;20048;-83
2021/07/30 05:50:07;;;;;;;18.67;10.88;;;17.60;99.90;;;17.80;77.00;100702.50;4938319;29;20122;-85
2021/07/30 05:52:36;;;;;;;17.35;10.65;;;17.70;99.90;;;18.04;76.92;100709.63;4938353;29;20111;-84
2021/07/30 05:55:06;;;;;;;20.65;10.32;;;17.80;99.90;;;17.90;77.11;100686.03;4938478;29;20075;-84
2021/07/30 05:57:35;;;;;;;17.90;11.60;;;17.80;99.90;;;18.04;76.56;100714.97;4938599;29;20043;-84
2021/07/30 06:00:06;;;;;;;32.05;11.70;;;17.80;99.90;;;18.18;76.58;100714.44;4921141;29;20438;-85
2021/07/30 06:02:37;;;;;;;30.85;10.75;;;17.90;99.90;;;18.28;76.80;100715.84;4938300;29;20064;-85
2021/07/30 06:05:08;;;;;;;19.50;10.43;;;18.00;99.90;;;18.12;75.90;100675.41;4938583;29;20043;-85
2021/07/30 06:07:38;;;;;;;17.33;10.20;;;18.00;99.90;;;18.16;75.00;100694.91;4938904;29;20287;-85
2021/07/30 06:10:07;;;;;;;19.70;10.17;;;18.00;99.90;;;18.32;75.18;100714.81;4939662;29;20039;-84
2021/07/30 06:12:36;;;;;;;21.45;10.18;;;18.00;99.90;;;18.25;74.04;100705.28;4923164;29;20075;-86
2021/07/30 06:15:06;;;;;;;19.83;10.05;;;18.00;99.90;;;18.19;74.36;100693.00;4939094;29;20048;-83
2021/07/30 06:17:35;;;;;;;17.00;9.60;;;18.00;99.90;;;18.19;73.87;100700.16;4939479;29;20048;-85
2021/07/30 06:20:04;;;;;;;19.40;9.60;;;17.90;99.90;;;18.04;73.55;100674.81;4943896;29;20090;-86
2021/07/30 06:22:34;;;;;;;18.15;10.20;;;18.00;99.90;;;18.14;73.32;100689.59;4942323;29;20098;-86
2021/07/30 06:25:06;;;;;;;21.75;10.07;;;17.90;99.90;;;18.16;73.24;100677.03;4938264;29;20071;-86
2021/07/30 06:27:35;;;;;;;20.77;9.82;;;18.00;99.90;;;18.22;73.35;100679.47;4937856;29;20561;-86
2021/07/30 06:30:04;;;;;;;17.08;10.48;;;18.10;99.90;;;18.32;73.03;100694.25;4921327;29;20438;-86
2021/07/30 06:32:32;;;;;;;16.65;9.55;;;18.10;99.90;;;18.29;72.01;100701.53;4937785;29;20047;-86
2021/07/30 06:35:02;;;;;;;19.25;10.07;;;18.10;99.90;;;18.30;72.09;100688.09;4920841;29;20060;-85
2021/07/30 06:37:33;;;;;;;15.52;9.50;;;18.10;99.90;;;18.33;72.13;100687.97;4937366;29;20043;-90
2021/07/30 06:40:02;;;;;;;18.20;9.63;;;18.10;99.90;;;18.44;71.77;100685.78;4938171;29;20055;-81
2021/07/30 06:42:33;;;;;;;18.35;9.07;;;18.20;99.90;;;18.43;72.08;100685.81;4937619;29;20566;-79
2021/07/30 06:45:04;;;;;;;17.52;9.23;;;18.20;99.90;;;18.43;72.01;100685.81;4920270;29;20577;-80
2021/07/30 06:47:34;;;;;;;17.85;9.45;;;18.20;99.90;;;18.38;72.13;100695.81;4937134;29;20051;-79
2021/07/30 06:50:03;;;;;;;15.40;9.35;;;18.20;99.90;;;18.59;71.36;100687.84;4937587;29;20075;-83
2021/07/30 06:52:31;;;;;;;21.83;9.10;;;18.30;99.90;;;18.66;71.21;100681.31;4937335;29;20048;-84
2021/07/30 06:55:01;;;;;;;18.40;9.90;;;18.40;99.90;;;18.58;71.23;100658.44;4937484;29;20565;-82
2021/07/30 06:57:31;;;;;;;16.35;8.98;;;18.50;99.90;;;18.63;72.40;100683.25;4937430;29;20043;-84
2021/07/30 07:00:00;;;;;;;17.38;8.07;;;18.40;99.90;;;18.63;72.43;100675.19;4937919;29;20076;-87
2021/07/30 07:02:28;;;;;;;16.15;7.78;;;18.40;99.90;;;18.63;71.01;100670.72;4919965;29;20056;-82
2021/07/30 07:04:57;;;;;;;17.23;8.30;;;18.40;99.90;;;18.79;71.80;100662.94;4937060;29;20102;-79
2021/07/30 07:07:25;;;;;;;15.35;8.23;;;18.50;99.90;;;18.76;71.85;100663.03;4937073;29;20391;-85
2021/07/30 07:09:54;;;;;;;21.80;8.52;;;18.50;99.90;;;18.82;70.45;100666.34;4937182;29;20103;-83
2021/07/30 07:12:22;;;;;;;18.88;9.70;;;18.60;99.90;;;18.72;71.47;100659.63;4937198;29;20039;-83
2021/07/30 07:14:52;;;;;;;14.93;9.07;;;18.40;99.90;;;18.53;70.62;100650.59;4936660;29;20482;-83
2021/07/30 07:17:21;;;;;;;19.55;8.88;;;18.30;99.90;;;18.36;70.49;100628.94;4937000;29;20043;-83
2021/07/30 07:19:49;;;;;;;17.80;10.23;;;18.30;99.90;;;18.57;71.03;100649.53;4936804;29;20077;-82
2021/07/30 07:22:18;;;;;;;20.77;11.05;;;18.30;99.90;;;18.56;71.27;100647.78;4936867;29;20043;-79
2021/07/30 07:24:46;;;;;;;19.58;9.40;;;18.20;99.90;;;18.64;71.01;100639.44;4936641;29;20061;-78
2021/07/30 07:27:15;;;;;;;17.73;10.25;;;18.30;99.90;;;18.92;71.16;100651.63;4936716;29;20392;-81
2021/07/30 07:29:43;;;;;;;19.65;9.52;;;18.60;99.90;;;18.91;71.19;100646.34;4936621;29;20051;-81
2021/07/30 07:32:13;;;;;;;21.27;9.23;;;18.70;99.90;;;19.10;70.38;100641.94;4936686;29;20110;-79
2021/07/30 07:34:41;;;;;;;21.20;9.20;;;18.80;99.90;;;18.60;70.28;100565.50;4936543;29;20062;-84
2021/07/30 07:37:10;;;;;;;19.08;9.00;;;18.80;99.90;;;18.98;70.57;100622.81;4936762;29;20044;-87
2021/07/30 07:39:38;;;;;;;25.90;10.55;;;18.80;99.90;;;18.70;70.67;100553.41;4936615;29;20106;-87
2021/07/30 07:42:07;;;;;;;20.30;9.93;;;18.90;99.90;;;19.35;69.61;100650.69;4936080;29;20461;-86
2021/07/30 07:44:35;;;;;;;18.63;9.13;;;19.00;99.90;;;19.55;70.15;100639.94;4936400;29;20086;-87
2021/07/30 07:47:04;;;;;;;20.08;9.60;;;19.20;99.90;;;19.52;69.29;100628.47;4919789;29;20060;-86
2021/07/30 07:49:34;;;;;;;18.40;9.20;;;19.40;99.90;;;19.67;68.08;100617.03;4936976;29;20039;-89
2021/07/30 07:52:03;;;;;;;16.90;8.93;;;19.50;99.90;;;19.70;68.14;100617.78;4936756;29;20047;-83
2021/07/30 07:54:51;;;;;;;20.58;8.23;;;19.50;99.90;;;19.62;68.60;100608.34;4936581;29;20043;-86
2021/07/30 07:57:20;;;;;;;17.13;8.48;;;19.50;99.90;;;19.80;68.97;100631.66;4919354;29;20040;-83
2021/07/30 07:59:48;;;;;;;17.80;8.43;;;19.50;99.90;;;19.86;67.07;100628.66;4936337;29;20099;-82
2021/07/30 08:02:17;;;;;;;17.20;7.97;;;19.60;99.90;;;19.89;67.88;100636.59;4936244;29;20063;-83
2021/07/30 08:04:47;;;;;;;16.52;7.82;;;19.60;99.90;;;20.19;68.26;100616.38;4936587;29;20490;-88
2021/07/30 08:07:17;;;;;;;14.10;8.13;;;19.80;99.90;;;20.29;67.55;100622.19;4919669;29;20055;-92
2021/07/30 08:09:46;;;;;;;13.95;7.40;;;20.00;99.90;;;20.46;65.68;100603.47;4936691;29;20048;-89
2021/07/30 08:12:14;;;;;;;16.92;7.82;;;20.30;99.90;;;20.71;65.50;100620.09;4919529;29;20058;-91
2021/07/30 08:14:43;;;;;;;12.10;7.50;;;20.50;99.90;;;20.92;64.50;100620.84;4936113;29;20052;-77
2021/07/30 08:17:11;;;;;;;15.55;7.60;;;20.60;99.90;;;20.98;63.52;100631.28;4936006;29;20052;-77
2021/07/30 08:19:40;;;;;;;11.23;6.53;;;20.80;99.90;;;20.95;63.58;100620.66;4919100;29;20059;-79
2021/07/30 08:22:10;;;;;;;13.13;7.55;;;20.70;99.90;;;20.96;63.07;100608.97;4935956;29;20051;-77
2021/07/30 08:24:39;;;;;;;16.20;6.82;;;20.70;99.90;;;21.09;62.88;100610.13;4919363;29;20490;-75
2021/07/30 08:27:10;;;;;;;11.50;6.15;;;20.80;99.90;;;21.24;61.30;100620.06;4918967;29;20056;-79
2021/07/30 08:29:38;;;;;;;16.90;6.63;;;20.90;99.90;;;21.41;61.77;100611.97;4936004;29;20127;-70
2021/07/30 08:32:08;;;;;;;11.70;6.00;;;21.10;99.90;;;21.47;62.07;100603.59;4935997;29;20044;-76
2021/07/30 08:34:38;;;;;;;12.50;6.40;;;21.20;99.90;;;21.58;61.31;100615.50;4918548;29;20055;-81
2021/07/30 08:37:08;;;;;;;18.17;5.82;;;21.30;99.90;;;21.58;60.37;100622.75;4918833;29;20059;-77
2021/07/30 08:39:38;;;;;;;11.95;5.80;;;21.30;99.90;;;21.67;61.06;100607.91;4935990;29;20229;-87
2021/07/30 08:42:06;;;;;;;11.52;5.80;;;21.30;99.90;;;21.58;60.36;100600.34;4935938;29;20072;-80
2021/07/30 08:44:35;;;;;;;10.15;5.90;;;21.40;99.90;;;21.62;61.21;100597.41;4935868;29;20040;-75
2021/07/30 08:47:04;;;;;;;8.63;5.85;;;21.40;99.90;;;21.50;60.87;100589.97;4935792;29;20126;-79
2021/07/30 08:49:34;;;;;;;10.43;5.88;;;21.30;99.90;;;21.64;61.23;100589.22;4935706;29;20044;-78
2021/07/30 08:52:10;;;;;;;14.25;5.97;;;21.30;99.90;;;21.52;60.28;100559.31;4918765;29;20118;-79
2021/07/30 08:54:41;;;;;;;18.33;6.90;;;21.40;99.90;;;21.19;60.09;100511.84;4937698;29;20065;-79
2021/07/30 08:57:09;;;;;;;11.43;6.28;;;21.40;99.90;;;21.58;60.97;100556.28;4939331;29;20048;-79
2021/07/30 08:59:39;;;;;;;8.13;5.55;;;21.40;99.90;;;21.79;59.62;100574.94;4939607;29;20047;-79
2021/07/30 09:02:08;;;;;;;12.23;6.40;;;21.40;99.90;;;21.20;59.64;100473.22;4939037;29;20106;-79
2021/07/30 09:04:38;;;;;;;11.43;7.00;;;21.50;99.90;;;21.77;60.31;100572.31;4939234;29;20048;-79
2021/07/30 09:07:08;;;;;;;8.77;6.23;;;21.50;99.90;;;21.64;60.11;100554.22;4939133;29;20044;-79
2021/07/30 09:09:38;;;;;;;10.80;6.55;;;21.40;99.90;;;21.80;60.59;100561.41;4939435;29;20371;-79
2021/07/30 09:12:07;;;;;;;10.15;6.47;;;21.50;99.90;;;21.83;61.87;100577.41;4938546;29;20051;-80
2021/07/30 09:14:37;;;;;;;11.60;6.40;;;21.50;99.90;;;21.88;63.07;100564.53;4939190;29;20096;-80
2021/07/30 09:17:07;;;;;;;15.50;6.13;;;21.60;99.90;;;21.87;62.12;100568.22;4938788;29;20052;-79
2021/07/30 09:19:36;;;;;;;11.65;6.47;;;21.60;99.90;;;21.55;60.97;100531.38;4938640;29;20043;-80
2021/07/30 09:22:07;;;;;;;12.15;6.53;;;21.50;99.90;;;21.70;62.82;100537.75;4939518;29;20048;-80
2021/07/30 09:24:40;;;;;;;11.13;6.50;;;21.50;99.90;;;21.66;62.29;100536.19;4939058;29;20040;-80
2021/07/30 09:27:09;;;;;;;10.43;5.50;;;21.50;99.90;;;21.76;61.82;100542.75;4939355;29;20107;-79
2021/07/30 09:29:40;;;;;;;7.40;5.75;;;21.50;99.90;;;21.73;61.59;100576.13;4939689;29;20453;-79
2021/07/30 09:32:09;;;;;;;;;;;21.50;99.90;;;21.65;60.96;100529.91;4921926;29;20067;-80
2021/07/30 09:34:40;;;;;;;9.73;6.05;;;21.50;99.90;;;21.85;61.31;100562.03;4938658;29;20009;-78
2021/07/30 09:37:11;;;;;;;10.63;5.85;;;21.50;99.90;;;21.73;60.52;100542.94;4938724;29;20062;-78
2021/07/30 09:39:45;;;;;;;9.48;6.68;;;21.50;99.90;;;21.67;60.43;100544.16;4938679;29;20059;-79
2021/07/30 09:42:18;;;;;;;19.63;6.38;;;21.50;99.90;;;21.83;61.76;100550.47;4938766;29;20075;-79
2021/07/30 09:44:49;;;;;;;10.73;6.88;;;21.50;99.90;;;21.79;61.36;100548.88;4921318;29;20087;-79
2021/07/30 09:47:24;;;;;;;9.55;5.75;;;21.50;99.90;;;21.92;61.96;100538.31;4921355;29;20076;-80
2021/07/30 09:49:55;;;;;;;9.68;6.05;;;21.60;99.90;;;21.93;62.75;100532.81;4938692;29;20505;-79
2021/07/30 09:52:26;;;;;;;8.57;6.45;;;21.70;99.90;;;22.07;61.07;100543.69;4938401;29;20047;-78
2021/07/30 09:54:57;;;;;;;;;;;21.70;99.90;;;21.94;61.65;100526.50;4938830;29;20556;-78
2021/07/30 09:57:26;;;;;;;;;;;21.80;99.90;;;21.85;60.80;100527.03;4938522;29;20278;-78
2021/07/30 09:59:58;;;;;;;10.52;6.00;;;21.60;99.90;;;21.94;60.63;100521.09;4937924;29;20006;-78
2021/07/30 10:02:29;;;;;;;10.25;6.28;;;21.70;99.90;;;22.04;61.41;100516.94;4938066;29;20378;-79
2021/07/30 10:04:59;;;;;;;8.75;6.28;;;21.80;99.90;;;22.15;62.14;100557.59;4937719;29;20075;-80
2021/07/30 10:07:29;;;;;;;9.45;6.22;;;21.80;99.90;;;22.06;61.96;100536.59;4937958;29;20082;-78
2021/07/30 10:10:04;;;;;;;7.68;5.95;;;21.80;99.90;;;22.06;61.51;100531.19;4938063;29;20058;-79
2021/07/30 10:12:35;;;;;;;11.07;5.85;;;21.80;99.90;;;22.00;62.09;100511.81;4938048;29;20055;-80
2021/07/30 10:15:08;;;;;;;11.05;5.90;;;21.70;99.90;;;21.58;61.40;100432.44;4937959;29;20446;-78
2021/07/30 10:17:38;;;;;;;7.70;6.28;;;21.80;99.90;;;22.14;62.64;100517.28;4938061;29;20081;-79